sensor_id;sensor_type;location;lat;lon;timestamp;temperature;humidity
23729;DHT22;12045;60.214;24.724;2023-12-20T00:01:32;1.80;99.90
23729;DHT22;12045;60.214;24.724;2023-12-20T00:04:01;2.10;99.90
23729;DHT22;12045;60.214;24.724;2023-12-20T00:06:30;2.00;99.90
23729;DHT22;12045;60.214;24.724;2023-12-20T00:09:01;2.10;99.90
23729;DHT22;12045;60.214;24.724;2023-12-20T00:11:31;1.60;99.90
23729;DHT22;12045;60.214;24.724;2023-12-20T00:13:59;1.80;99.90
23729;DHT22;12045;60.214;24.724;2023-12-20T00:16:28;1.70;99.90
23729;DHT22;12045;60.214;24.724;2023-12-20T00:18:55;1.80;99.90
23729;DHT22;12045;60.214;24.724;2023-12-20T00:21:24;1.70;99.90
23729;DHT22;12045;60.214;24.724;2023-12-20T00:23:53;2.10;99.90
23729;DHT22;12045;60.214;24.724;2023-12-20T00:26:24;1.80;99.90
23729;DHT22;12045;60.214;24.724;2023-12-20T00:28:53;1.90;99.90
23729;DHT22;12045;60.214;24.724;2023-12-20T00:31:23;2.00;99.90
23729;DHT22;12045;60.214;24.724;2023-12-20T00:33:51;2.90;99.90
23729;DHT22;12045;60.214;24.724;2023-12-20T00:36:21;1.80;99.90
23729;DHT22;12045;60.214;24.724;2023-12-20T00:38:48;1.90;99.90
23729;DHT22;12045;60.214;24.724;2023-12-20T00:41:18;2.00;99.90
23729;DHT22;12045;60.214;24.724;2023-12-20T00:43:45;2.40;99.90
23729;DHT22;12045;60.214;24.724;2023-12-20T00:46:14;1.80;99.90
23729;DHT22;12045;60.214;24.724;2023-12-20T00:48:41;2.40;99.90
23729;DHT22;12045;60.214;24.724;2023-12-20T00:51:10;2.20;99.90
23729;DHT22;12045;60.214;24.724;2023-12-20T00:53:38;2.50;99.90
23729;DHT22;12045;60.214;24.724;2023-12-20T00:56:07;1.70;99.90
23729;DHT22;12045;60.214;24.724;2023-12-20T00:58:37;1.80;99.90
23729;DHT22;12045;60.214;24.724;2023-12-20T01:01:06;1.70;99.90
23729;DHT22;12045;60.214;24.724;2023-12-20T01:03:35;1.70;99.90
23729;DHT22;12045;60.214;24.724;2023-12-20T01:06:04;1.70;99.90
23729;DHT22;12045;60.214;24.724;2023-12-20T01:08:33;1.70;99.90
23729;DHT22;12045;60.214;24.724;2023-12-20T01:11:06;1.70;99.90
23729;DHT22;12045;60.214;24.724;2023-12-20T01:13:35;1.70;99.90
23729;DHT22;12045;60.214;24.724;2023-12-20T01:16:04;1.70;99.90
23729;DHT22;12045;60.214;24.724;2023-12-20T01:18:32;1.70;99.90
23729;DHT22;12045;60.214;24.724;2023-12-20T01:21:04;2.20;99.90
23729;DHT22;12045;60.214;24.724;2023-12-20T01:23:33;1.70;99.90
23729;DHT22;12045;60.214;24.724;2023-12-20T01:26:01;1.70;99.90
23729;DHT22;12045;60.214;24.724;2023-12-20T01:28:30;1.70;99.90
23729;DHT22;12045;60.214;24.724;2023-12-20T01:30:59;1.70;99.90
23729;DHT22;12045;60.214;24.724;2023-12-20T01:33:27;2.40;99.90
23729;DHT22;12045;60.214;24.724;2023-12-20T01:35:56;2.70;99.90
23729;DHT22;12045;60.214;24.724;2023-12-20T01:38:23;1.60;99.90
23729;DHT22;12045;60.214;24.724;2023-12-20T01:40:51;1.60;99.90
23729;DHT22;12045;60.214;24.724;2023-12-20T01:43:18;2.40;99.90
23729;DHT22;12045;60.214;24.724;2023-12-20T01:45:50;3.00;99.90
23729;DHT22;12045;60.214;24.724;2023-12-20T01:48:20;1.60;99.90
23729;DHT22;12045;60.214;24.724;2023-12-20T01:50:48;2.50;99.90
23729;DHT22;12045;60.214;24.724;2023-12-20T01:53:17;2.00;99.90
23729;DHT22;12045;60.214;24.724;2023-12-20T01:55:48;1.80;99.90
23729;DHT22;12045;60.214;24.724;2023-12-20T01:58:16;1.70;99.90
23729;DHT22;12045;60.214;24.724;2023-12-20T02:00:44;1.60;99.90
23729;DHT22;12045;60.214;24.724;2023-12-20T02:03:13;1.50;99.90
23729;DHT22;12045;60.214;24.724;2023-12-20T02:05:41;2.50;99.90
23729;DHT22;12045;60.214;24.724;2023-12-20T02:08:09;2.60;99.90
23729;DHT22;12045;60.214;24.724;2023-12-20T02:10:37;1.50;99.90
23729;DHT22;12045;60.214;24.724;2023-12-20T02:13:05;1.60;99.90
23729;DHT22;12045;60.214;24.724;2023-12-20T02:15:34;1.60;99.90
23729;DHT22;12045;60.214;24.724;2023-12-20T02:18:07;1.70;99.90
23729;DHT22;12045;60.214;24.724;2023-12-20T02:20:35;1.50;99.90
23729;DHT22;12045;60.214;24.724;2023-12-20T02:23:03;2.00;99.90
23729;DHT22;12045;60.214;24.724;2023-12-20T02:25:30;1.50;99.90
23729;DHT22;12045;60.214;24.724;2023-12-20T02:27:58;1.60;99.90
23729;DHT22;12045;60.214;24.724;2023-12-20T02:30:26;1.50;99.90
23729;DHT22;12045;60.214;24.724;2023-12-20T02:32:54;1.50;99.90
23729;DHT22;12045;60.214;24.724;2023-12-20T02:35:22;1.90;99.90
23729;DHT22;12045;60.214;24.724;2023-12-20T02:37:51;1.80;99.90
23729;DHT22;12045;60.214;24.724;2023-12-20T02:40:18;1.60;99.90
23729;DHT22;12045;60.214;24.724;2023-12-20T02:42:46;2.20;99.90
23729;DHT22;12045;60.214;24.724;2023-12-20T02:45:14;1.80;99.90
23729;DHT22;12045;60.214;24.724;2023-12-20T02:47:42;1.50;99.90
23729;DHT22;12045;60.214;24.724;2023-12-20T02:50:10;1.80;99.90
23729;DHT22;12045;60.214;24.724;2023-12-20T02:52:39;2.00;99.90
23729;DHT22;12045;60.214;24.724;2023-12-20T02:55:07;1.90;99.90
23729;DHT22;12045;60.214;24.724;2023-12-20T02:57:36;1.40;99.90
23729;DHT22;12045;60.214;24.724;2023-12-20T03:00:04;1.90;99.90
23729;DHT22;12045;60.214;24.724;2023-12-20T03:02:33;1.40;99.90
23729;DHT22;12045;60.214;24.724;2023-12-20T03:05:02;1.80;99.90
23729;DHT22;12045;60.214;24.724;2023-12-20T03:07:32;1.40;99.90
23729;DHT22;12045;60.214;24.724;2023-12-20T03:10:02;1.70;99.90
23729;DHT22;12045;60.214;24.724;2023-12-20T03:12:46;1.50;99.90
23729;DHT22;12045;60.214;24.724;2023-12-20T03:15:17;1.60;99.90
23729;DHT22;12045;60.214;24.724;2023-12-20T03:17:45;2.80;99.90
23729;DHT22;12045;60.214;24.724;2023-12-20T03:20:13;1.50;99.90
23729;DHT22;12045;60.214;24.724;2023-12-20T03:22:42;0.90;99.90
23729;DHT22;12045;60.214;24.724;2023-12-20T03:25:09;1.70;99.90
23729;DHT22;12045;60.214;24.724;2023-12-20T03:27:38;1.80;99.90
23729;DHT22;12045;60.214;24.724;2023-12-20T03:30:08;2.00;99.90
23729;DHT22;12045;60.214;24.724;2023-12-20T03:32:38;1.40;99.90
23729;DHT22;12045;60.214;24.724;2023-12-20T03:35:06;1.60;99.90
23729;DHT22;12045;60.214;24.724;2023-12-20T03:37:34;1.70;99.90
23729;DHT22;12045;60.214;24.724;2023-12-20T03:40:03;1.40;99.90
23729;DHT22;12045;60.214;24.724;2023-12-20T03:42:30;1.50;99.90
23729;DHT22;12045;60.214;24.724;2023-12-20T03:44:58;1.90;99.90
23729;DHT22;12045;60.214;24.724;2023-12-20T03:47:25;1.70;99.90
23729;DHT22;12045;60.214;24.724;2023-12-20T03:49:53;1.20;99.90
23729;DHT22;12045;60.214;24.724;2023-12-20T03:52:21;2.00;99.90
23729;DHT22;12045;60.214;24.724;2023-12-20T03:54:49;1.70;99.90
23729;DHT22;12045;60.214;24.724;2023-12-20T03:57:17;1.40;99.90
23729;DHT22;12045;60.214;24.724;2023-12-20T03:59:46;1.60;99.90
23729;DHT22;12045;60.214;24.724;2023-12-20T04:02:15;1.50;99.90
23729;DHT22;12045;60.214;24.724;2023-12-20T04:04:45;2.00;99.90
23729;DHT22;12045;60.214;24.724;2023-12-20T04:07:13;1.40;99.90
23729;DHT22;12045;60.214;24.724;2023-12-20T04:09:43;2.00;99.90
23729;DHT22;12045;60.214;24.724;2023-12-20T04:12:11;1.50;99.90
23729;DHT22;12045;60.214;24.724;2023-12-20T04:14:39;1.80;99.90
23729;DHT22;12045;60.214;24.724;2023-12-20T04:17:07;3.00;99.90
23729;DHT22;12045;60.214;24.724;2023-12-20T04:19:34;1.70;99.90
23729;DHT22;12045;60.214;24.724;2023-12-20T04:22:03;1.40;99.90
23729;DHT22;12045;60.214;24.724;2023-12-20T04:24:31;1.60;99.90
23729;DHT22;12045;60.214;24.724;2023-12-20T04:27:00;1.60;99.90
23729;DHT22;12045;60.214;24.724;2023-12-20T04:29:28;1.40;99.90
23729;DHT22;12045;60.214;24.724;2023-12-20T04:31:57;1.80;99.90
23729;DHT22;12045;60.214;24.724;2023-12-20T04:34:25;1.70;99.90
23729;DHT22;12045;60.214;24.724;2023-12-20T04:36:53;1.90;99.90
23729;DHT22;12045;60.214;24.724;2023-12-20T04:39:21;1.80;99.90
23729;DHT22;12045;60.214;24.724;2023-12-20T04:41:48;1.40;99.90
23729;DHT22;12045;60.214;24.724;2023-12-20T04:44:17;2.60;99.90
23729;DHT22;12045;60.214;24.724;2023-12-20T04:46:46;1.50;99.90
23729;DHT22;12045;60.214;24.724;2023-12-20T04:49:16;1.80;99.90
23729;DHT22;12045;60.214;24.724;2023-12-20T04:51:45;1.80;99.90
23729;DHT22;12045;60.214;24.724;2023-12-20T04:54:13;1.90;99.90
23729;DHT22;12045;60.214;24.724;2023-12-20T04:56:41;1.70;99.90
23729;DHT22;12045;60.214;24.724;2023-12-20T04:59:09;1.40;99.90
23729;DHT22;12045;60.214;24.724;2023-12-20T05:01:39;1.30;99.90
23729;DHT22;12045;60.214;24.724;2023-12-20T05:04:07;1.50;99.90
23729;DHT22;12045;60.214;24.724;2023-12-20T05:06:35;1.40;99.90
23729;DHT22;12045;60.214;24.724;2023-12-20T05:09:03;1.70;99.90
23729;DHT22;12045;60.214;24.724;2023-12-20T05:11:30;1.40;99.90
23729;DHT22;12045;60.214;24.724;2023-12-20T05:13:58;1.30;99.90
23729;DHT22;12045;60.214;24.724;2023-12-20T05:16:26;1.30;99.90
23729;DHT22;12045;60.214;24.724;2023-12-20T05:18:54;2.30;99.90
23729;DHT22;12045;60.214;24.724;2023-12-20T05:21:24;1.40;99.90
23729;DHT22;12045;60.214;24.724;2023-12-20T05:23:54;2.70;99.90
23729;DHT22;12045;60.214;24.724;2023-12-20T05:26:21;2.60;99.90
23729;DHT22;12045;60.214;24.724;2023-12-20T05:28:51;1.30;99.90
23729;DHT22;12045;60.214;24.724;2023-12-20T05:31:18;1.30;99.90
23729;DHT22;12045;60.214;24.724;2023-12-20T05:33:46;1.50;99.90
23729;DHT22;12045;60.214;24.724;2023-12-20T05:36:18;2.20;99.90
23729;DHT22;12045;60.214;24.724;2023-12-20T05:38:46;3.00;99.90
23729;DHT22;12045;60.214;24.724;2023-12-20T05:41:15;2.50;99.90
23729;DHT22;12045;60.214;24.724;2023-12-20T05:43:44;1.90;99.90
23729;DHT22;12045;60.214;24.724;2023-12-20T05:46:15;1.30;99.90
23729;DHT22;12045;60.214;24.724;2023-12-20T05:48:43;1.30;99.90
23729;DHT22;12045;60.214;24.724;2023-12-20T05:51:11;2.00;99.90
23729;DHT22;12045;60.214;24.724;2023-12-20T05:53:41;1.70;99.90
23729;DHT22;12045;60.214;24.724;2023-12-20T05:56:09;1.50;99.90
23729;DHT22;12045;60.214;24.724;2023-12-20T05:58:38;2.10;99.90
23729;DHT22;12045;60.214;24.724;2023-12-20T06:01:06;1.60;99.90
23729;DHT22;12045;60.214;24.724;2023-12-20T06:03:36;1.70;99.90
23729;DHT22;12045;60.214;24.724;2023-12-20T06:06:08;1.50;99.90
23729;DHT22;12045;60.214;24.724;2023-12-20T06:08:43;1.20;99.90
23729;DHT22;12045;60.214;24.724;2023-12-20T06:11:12;1.30;99.90
23729;DHT22;12045;60.214;24.724;2023-12-20T06:13:41;1.30;99.90
23729;DHT22;12045;60.214;24.724;2023-12-20T06:16:09;2.20;99.90
23729;DHT22;12045;60.214;24.724;2023-12-20T06:18:37;2.00;99.90
23729;DHT22;12045;60.214;24.724;2023-12-20T06:21:08;1.40;99.90
23729;DHT22;12045;60.214;24.724;2023-12-20T06:23:41;1.30;99.90
23729;DHT22;12045;60.214;24.724;2023-12-20T06:26:09;1.40;99.90
23729;DHT22;12045;60.214;24.724;2023-12-20T06:28:38;1.30;99.90
23729;DHT22;12045;60.214;24.724;2023-12-20T06:31:08;1.30;99.90
23729;DHT22;12045;60.214;24.724;2023-12-20T06:33:38;1.60;99.90
23729;DHT22;12045;60.214;24.724;2023-12-20T06:36:10;1.30;99.90
23729;DHT22;12045;60.214;24.724;2023-12-20T06:38:40;1.30;99.90
23729;DHT22;12045;60.214;24.724;2023-12-20T06:41:13;2.10;99.90
23729;DHT22;12045;60.214;24.724;2023-12-20T06:43:42;2.20;99.90
23729;DHT22;12045;60.214;24.724;2023-12-20T06:46:17;1.20;99.90
23729;DHT22;12045;60.214;24.724;2023-12-20T06:48:46;1.40;99.90
23729;DHT22;12045;60.214;24.724;2023-12-20T06:51:16;1.30;99.90
23729;DHT22;12045;60.214;24.724;2023-12-20T06:53:45;1.30;99.90
23729;DHT22;12045;60.214;24.724;2023-12-20T06:56:13;1.20;99.90
23729;DHT22;12045;60.214;24.724;2023-12-20T06:58:45;1.50;99.90
23729;DHT22;12045;60.214;24.724;2023-12-20T07:01:15;1.20;99.90
23729;DHT22;12045;60.214;24.724;2023-12-20T07:03:45;1.20;99.90
23729;DHT22;12045;60.214;24.724;2023-12-20T07:06:14;1.20;99.90
23729;DHT22;12045;60.214;24.724;2023-12-20T07:08:44;1.20;99.90
23729;DHT22;12045;60.214;24.724;2023-12-20T07:11:12;2.00;99.90
23729;DHT22;12045;60.214;24.724;2023-12-20T07:13:40;1.30;99.90
23729;DHT22;12045;60.214;24.724;2023-12-20T07:16:10;1.20;99.90
23729;DHT22;12045;60.214;24.724;2023-12-20T07:18:39;1.40;99.90
23729;DHT22;12045;60.214;24.724;2023-12-20T07:21:07;1.30;99.90
23729;DHT22;12045;60.214;24.724;2023-12-20T07:23:35;1.20;99.90
23729;DHT22;12045;60.214;24.724;2023-12-20T07:26:03;2.00;99.90
23729;DHT22;12045;60.214;24.724;2023-12-20T07:28:33;1.40;99.90
23729;DHT22;12045;60.214;24.724;2023-12-20T07:31:01;2.00;99.90
23729;DHT22;12045;60.214;24.724;2023-12-20T07:33:29;1.10;99.90
23729;DHT22;12045;60.214;24.724;2023-12-20T07:36:06;1.20;99.90
23729;DHT22;12045;60.214;24.724;2023-12-20T07:38:34;1.10;99.90
23729;DHT22;12045;60.214;24.724;2023-12-20T07:41:02;1.10;99.90
23729;DHT22;12045;60.214;24.724;2023-12-20T07:43:31;1.10;99.90
23729;DHT22;12045;60.214;24.724;2023-12-20T07:46:06;1.10;99.90
23729;DHT22;12045;60.214;24.724;2023-12-20T07:48:35;1.10;99.90
23729;DHT22;12045;60.214;24.724;2023-12-20T07:51:04;1.10;99.90
23729;DHT22;12045;60.214;24.724;2023-12-20T07:53:35;1.30;99.90
23729;DHT22;12045;60.214;24.724;2023-12-20T07:56:16;1.10;99.90
23729;DHT22;12045;60.214;24.724;2023-12-20T07:58:45;1.10;99.90
23729;DHT22;12045;60.214;24.724;2023-12-20T08:01:20;2.40;99.90
23729;DHT22;12045;60.214;24.724;2023-12-20T08:03:49;1.10;99.90
23729;DHT22;12045;60.214;24.724;2023-12-20T08:06:17;1.30;99.90
23729;DHT22;12045;60.214;24.724;2023-12-20T08:08:48;2.30;99.90
23729;DHT22;12045;60.214;24.724;2023-12-20T08:11:28;1.20;99.90
23729;DHT22;12045;60.214;24.724;2023-12-20T08:13:58;1.50;99.90
23729;DHT22;12045;60.214;24.724;2023-12-20T08:16:26;1.60;99.90
23729;DHT22;12045;60.214;24.724;2023-12-20T08:18:54;2.70;99.90
23729;DHT22;12045;60.214;24.724;2023-12-20T08:21:23;1.70;99.90
23729;DHT22;12045;60.214;24.724;2023-12-20T08:23:50;1.30;99.90
23729;DHT22;12045;60.214;24.724;2023-12-20T08:26:19;2.60;99.90
23729;DHT22;12045;60.214;24.724;2023-12-20T08:28:52;1.70;99.90
23729;DHT22;12045;60.214;24.724;2023-12-20T08:31:22;2.30;99.90
23729;DHT22;12045;60.214;24.724;2023-12-20T08:33:50;2.10;99.90
23729;DHT22;12045;60.214;24.724;2023-12-20T08:36:19;1.40;99.90
23729;DHT22;12045;60.214;24.724;2023-12-20T08:38:50;1.40;99.90
23729;DHT22;12045;60.214;24.724;2023-12-20T08:41:18;2.30;99.90
23729;DHT22;12045;60.214;24.724;2023-12-20T08:43:46;1.50;99.90
23729;DHT22;12045;60.214;24.724;2023-12-20T08:46:14;1.50;99.90
23729;DHT22;12045;60.214;24.724;2023-12-20T08:48:42;1.90;99.90
23729;DHT22;12045;60.214;24.724;2023-12-20T08:51:12;1.50;99.90
23729;DHT22;12045;60.214;24.724;2023-12-20T08:53:43;1.90;99.90
23729;DHT22;12045;60.214;24.724;2023-12-20T08:56:12;2.10;99.90
23729;DHT22;12045;60.214;24.724;2023-12-20T08:58:41;2.10;99.90
23729;DHT22;12045;60.214;24.724;2023-12-20T09:01:12;2.40;99.90
23729;DHT22;12045;60.214;24.724;2023-12-20T09:03:41;2.70;99.90
23729;DHT22;12045;60.214;24.724;2023-12-20T09:06:09;2.90;99.90
23729;DHT22;12045;60.214;24.724;2023-12-20T09:08:39;2.90;99.90
23729;DHT22;12045;60.214;24.724;2023-12-20T09:11:08;2.90;99.90
23729;DHT22;12045;60.214;24.724;2023-12-20T09:13:36;2.90;99.90
23729;DHT22;12045;60.214;24.724;2023-12-20T09:16:03;3.30;99.90
23729;DHT22;12045;60.214;24.724;2023-12-20T09:18:32;2.80;99.90
23729;DHT22;12045;60.214;24.724;2023-12-20T09:21:00;2.80;99.90
23729;DHT22;12045;60.214;24.724;2023-12-20T09:23:27;3.00;99.90
23729;DHT22;12045;60.214;24.724;2023-12-20T09:25:55;3.20;99.90
23729;DHT22;12045;60.214;24.724;2023-12-20T09:28:24;3.10;99.90
23729;DHT22;12045;60.214;24.724;2023-12-20T09:30:51;2.60;99.90
23729;DHT22;12045;60.214;24.724;2023-12-20T09:33:19;2.50;99.90
23729;DHT22;12045;60.214;24.724;2023-12-20T09:35:52;2.00;99.90
23729;DHT22;12045;60.214;24.724;2023-12-20T09:38:20;2.70;99.90
23729;DHT22;12045;60.214;24.724;2023-12-20T09:40:48;2.10;99.90
23729;DHT22;12045;60.214;24.724;2023-12-20T09:43:19;1.40;99.90
23729;DHT22;12045;60.214;24.724;2023-12-20T09:45:54;1.40;99.90
23729;DHT22;12045;60.214;24.724;2023-12-20T09:48:22;1.90;99.90
23729;DHT22;12045;60.214;24.724;2023-12-20T09:50:54;1.40;99.90
23729;DHT22;12045;60.214;24.724;2023-12-20T09:53:25;1.40;99.90
23729;DHT22;12045;60.214;24.724;2023-12-20T09:55:58;1.40;99.90
23729;DHT22;12045;60.214;24.724;2023-12-20T09:58:32;1.30;99.90
23729;DHT22;12045;60.214;24.724;2023-12-20T10:01:08;1.20;99.90
23729;DHT22;12045;60.214;24.724;2023-12-20T10:03:39;1.20;99.90
23729;DHT22;12045;60.214;24.724;2023-12-20T10:06:10;1.30;99.90
23729;DHT22;12045;60.214;24.724;2023-12-20T10:08:38;1.90;99.90
23729;DHT22;12045;60.214;24.724;2023-12-20T10:11:07;1.60;99.90
23729;DHT22;12045;60.214;24.724;2023-12-20T10:13:40;1.20;99.90
23729;DHT22;12045;60.214;24.724;2023-12-20T10:16:09;1.40;99.90
23729;DHT22;12045;60.214;24.724;2023-12-20T10:18:39;1.30;99.90
23729;DHT22;12045;60.214;24.724;2023-12-20T10:21:07;1.90;99.90
23729;DHT22;12045;60.214;24.724;2023-12-20T10:23:37;1.70;99.90
23729;DHT22;12045;60.214;24.724;2023-12-20T10:26:08;2.50;99.90
23729;DHT22;12045;60.214;24.724;2023-12-20T10:28:37;1.40;99.90
23729;DHT22;12045;60.214;24.724;2023-12-20T10:31:06;1.30;99.90
23729;DHT22;12045;60.214;24.724;2023-12-20T10:33:34;1.90;99.90
23729;DHT22;12045;60.214;24.724;2023-12-20T10:36:05;1.70;99.90
23729;DHT22;12045;60.214;24.724;2023-12-20T10:38:34;1.30;99.90
23729;DHT22;12045;60.214;24.724;2023-12-20T10:41:03;1.40;99.90
23729;DHT22;12045;60.214;24.724;2023-12-20T10:43:33;1.90;99.90
23729;DHT22;12045;60.214;24.724;2023-12-20T10:46:03;1.00;99.90
23729;DHT22;12045;60.214;24.724;2023-12-20T10:48:31;1.40;99.90
23729;DHT22;12045;60.214;24.724;2023-12-20T10:51:04;1.50;99.90
23729;DHT22;12045;60.214;24.724;2023-12-20T10:53:33;1.50;99.90
23729;DHT22;12045;60.214;24.724;2023-12-20T10:56:05;1.50;99.90
23729;DHT22;12045;60.214;24.724;2023-12-20T10:58:35;1.40;99.90
23729;DHT22;12045;60.214;24.724;2023-12-20T11:01:06;1.70;99.90
23729;DHT22;12045;60.214;24.724;2023-12-20T11:03:37;1.60;99.90
23729;DHT22;12045;60.214;24.724;2023-12-20T11:06:32;1.50;99.90
23729;DHT22;12045;60.214;24.724;2023-12-20T11:09:22;1.50;99.90
23729;DHT22;12045;60.214;24.724;2023-12-20T11:14:52;1.40;99.90
23729;DHT22;12045;60.214;24.724;2023-12-20T11:17:22;1.50;99.90
23729;DHT22;12045;60.214;24.724;2023-12-20T11:22:30;1.40;99.90
23729;DHT22;12045;60.214;24.724;2023-12-20T11:25:10;1.50;99.90
23729;DHT22;12045;60.214;24.724;2023-12-20T11:27:42;1.40;99.90
23729;DHT22;12045;60.214;24.724;2023-12-20T11:30:15;1.40;99.90
23729;DHT22;12045;60.214;24.724;2023-12-20T11:32:46;1.50;99.90
23729;DHT22;12045;60.214;24.724;2023-12-20T11:37:44;2.10;99.90
23729;DHT22;12045;60.214;24.724;2023-12-20T11:40:18;1.60;99.90
23729;DHT22;12045;60.214;24.724;2023-12-20T11:42:49;1.50;99.90
23729;DHT22;12045;60.214;24.724;2023-12-20T11:45:22;1.50;99.90
23729;DHT22;12045;60.214;24.724;2023-12-20T11:47:54;1.50;99.90
23729;DHT22;12045;60.214;24.724;2023-12-20T11:50:35;1.70;99.90
23729;DHT22;12045;60.214;24.724;2023-12-20T11:53:04;1.70;99.90
23729;DHT22;12045;60.214;24.724;2023-12-20T11:55:33;1.60;99.90
23729;DHT22;12045;60.214;24.724;2023-12-20T11:58:02;1.50;99.90
23729;DHT22;12045;60.214;24.724;2023-12-20T12:00:31;1.50;99.90
23729;DHT22;12045;60.214;24.724;2023-12-20T12:02:59;2.30;99.90
23729;DHT22;12045;60.214;24.724;2023-12-20T12:05:31;2.30;99.90
23729;DHT22;12045;60.214;24.724;2023-12-20T12:07:59;1.80;99.90
23729;DHT22;12045;60.214;24.724;2023-12-20T12:10:33;1.40;99.90
23729;DHT22;12045;60.214;24.724;2023-12-20T12:13:03;2.10;99.90
23729;DHT22;12045;60.214;24.724;2023-12-20T12:15:32;2.00;99.90
23729;DHT22;12045;60.214;24.724;2023-12-20T12:18:01;1.20;99.90
23729;DHT22;12045;60.214;24.724;2023-12-20T12:20:31;1.10;99.90
23729;DHT22;12045;60.214;24.724;2023-12-20T12:23:03;1.40;99.90
23729;DHT22;12045;60.214;24.724;2023-12-20T12:25:34;1.10;99.90
23729;DHT22;12045;60.214;24.724;2023-12-20T12:28:07;0.90;99.90
23729;DHT22;12045;60.214;24.724;2023-12-20T12:30:34;1.10;99.90
23729;DHT22;12045;60.214;24.724;2023-12-20T12:33:12;1.10;99.90
23729;DHT22;12045;60.214;24.724;2023-12-20T12:35:40;1.10;99.90
23729;DHT22;12045;60.214;24.724;2023-12-20T12:38:08;1.30;99.90
23729;DHT22;12045;60.214;24.724;2023-12-20T12:40:36;1.10;99.90
23729;DHT22;12045;60.214;24.724;2023-12-20T12:43:04;1.60;99.90
23729;DHT22;12045;60.214;24.724;2023-12-20T12:45:33;1.50;99.90
23729;DHT22;12045;60.214;24.724;2023-12-20T12:48:00;1.10;99.90
23729;DHT22;12045;60.214;24.724;2023-12-20T12:50:28;1.20;99.90
23729;DHT22;12045;60.214;24.724;2023-12-20T12:52:56;1.30;99.90
23729;DHT22;12045;60.214;24.724;2023-12-20T12:55:26;1.10;99.90
23729;DHT22;12045;60.214;24.724;2023-12-20T12:57:54;2.40;99.90
23729;DHT22;12045;60.214;24.724;2023-12-20T13:00:22;1.30;99.90
23729;DHT22;12045;60.214;24.724;2023-12-20T13:02:50;1.10;99.90
23729;DHT22;12045;60.214;24.724;2023-12-20T13:05:18;1.10;99.90
23729;DHT22;12045;60.214;24.724;2023-12-20T13:07:46;2.40;99.90
23729;DHT22;12045;60.214;24.724;2023-12-20T13:10:16;1.10;99.90
23729;DHT22;12045;60.214;24.724;2023-12-20T13:12:47;2.00;99.90
23729;DHT22;12045;60.214;24.724;2023-12-20T13:15:16;1.60;99.90
23729;DHT22;12045;60.214;24.724;2023-12-20T13:17:44;1.10;99.90
23729;DHT22;12045;60.214;24.724;2023-12-20T13:20:14;2.00;99.90
23729;DHT22;12045;60.214;24.724;2023-12-20T13:22:44;1.10;99.90
23729;DHT22;12045;60.214;24.724;2023-12-20T13:25:14;1.20;99.90
23729;DHT22;12045;60.214;24.724;2023-12-20T13:27:42;1.70;99.90
23729;DHT22;12045;60.214;24.724;2023-12-20T13:30:12;1.10;99.90
23729;DHT22;12045;60.214;24.724;2023-12-20T13:32:41;0.90;99.90
23729;DHT22;12045;60.214;24.724;2023-12-20T13:35:09;0.80;99.90
23729;DHT22;12045;60.214;24.724;2023-12-20T13:37:38;1.20;99.90
23729;DHT22;12045;60.214;24.724;2023-12-20T13:40:07;0.80;99.90
23729;DHT22;12045;60.214;24.724;2023-12-20T13:42:35;0.80;99.90
23729;DHT22;12045;60.214;24.724;2023-12-20T13:45:03;1.90;99.90
23729;DHT22;12045;60.214;24.724;2023-12-20T13:47:33;0.10;99.90
23729;DHT22;12045;60.214;24.724;2023-12-20T13:50:03;0.60;99.90
23729;DHT22;12045;60.214;24.724;2023-12-20T13:52:33;0.60;99.90
23729;DHT22;12045;60.214;24.724;2023-12-20T13:55:06;0.60;99.90
23729;DHT22;12045;60.214;24.724;2023-12-20T13:57:36;0.40;99.90
23729;DHT22;12045;60.214;24.724;2023-12-20T14:00:22;0.30;99.90
23729;DHT22;12045;60.214;24.724;2023-12-20T14:02:50;1.20;99.90
23729;DHT22;12045;60.214;24.724;2023-12-20T14:05:19;0.30;99.90
23729;DHT22;12045;60.214;24.724;2023-12-20T14:07:53;0.30;99.90
23729;DHT22;12045;60.214;24.724;2023-12-20T14:10:21;0.30;99.90
23729;DHT22;12045;60.214;24.724;2023-12-20T14:12:50;0.30;99.90
23729;DHT22;12045;60.214;24.724;2023-12-20T14:15:21;0.20;99.90
23729;DHT22;12045;60.214;24.724;2023-12-20T14:17:52;1.10;99.90
23729;DHT22;12045;60.214;24.724;2023-12-20T14:20:21;0.10;99.90
23729;DHT22;12045;60.214;24.724;2023-12-20T14:22:49;0.10;99.90
23729;DHT22;12045;60.214;24.724;2023-12-20T14:25:17;0.00;99.90
23729;DHT22;12045;60.214;24.724;2023-12-20T14:27:46;0.00;99.90
23729;DHT22;12045;60.214;24.724;2023-12-20T14:30:19;-0.10;99.90
23729;DHT22;12045;60.214;24.724;2023-12-20T14:32:46;0.50;99.90
23729;DHT22;12045;60.214;24.724;2023-12-20T14:35:16;-0.20;99.90
23729;DHT22;12045;60.214;24.724;2023-12-20T14:37:43;-0.30;99.90
23729;DHT22;12045;60.214;24.724;2023-12-20T14:40:14;-0.30;99.90
23729;DHT22;12045;60.214;24.724;2023-12-20T14:42:45;-0.20;99.90
23729;DHT22;12045;60.214;24.724;2023-12-20T14:45:14;-0.20;99.90
23729;DHT22;12045;60.214;24.724;2023-12-20T14:47:44;-0.10;99.90
23729;DHT22;12045;60.214;24.724;2023-12-20T14:50:13;0.00;99.90
23729;DHT22;12045;60.214;24.724;2023-12-20T14:52:45;0.30;99.90
23729;DHT22;12045;60.214;24.724;2023-12-20T14:55:13;0.40;99.90
23729;DHT22;12045;60.214;24.724;2023-12-20T14:57:41;1.20;99.90
23729;DHT22;12045;60.214;24.724;2023-12-20T15:00:12;0.20;99.90
23729;DHT22;12045;60.214;24.724;2023-12-20T15:02:44;0.20;99.90
23729;DHT22;12045;60.214;24.724;2023-12-20T15:05:13;0.10;99.90
23729;DHT22;12045;60.214;24.724;2023-12-20T15:07:43;-0.10;99.90
23729;DHT22;12045;60.214;24.724;2023-12-20T15:10:13;-0.10;99.90
23729;DHT22;12045;60.214;24.724;2023-12-20T15:12:41;-0.10;99.90
23729;DHT22;12045;60.214;24.724;2023-12-20T15:15:09;-0.10;99.90
23729;DHT22;12045;60.214;24.724;2023-12-20T15:17:38;0.00;99.90
23729;DHT22;12045;60.214;24.724;2023-12-20T15:20:06;0.10;99.90
23729;DHT22;12045;60.214;24.724;2023-12-20T15:22:34;0.00;99.90
23729;DHT22;12045;60.214;24.724;2023-12-20T15:25:04;0.10;99.90
23729;DHT22;12045;60.214;24.724;2023-12-20T15:27:34;0.10;99.90
23729;DHT22;12045;60.214;24.724;2023-12-20T15:30:07;0.10;99.90
23729;DHT22;12045;60.214;24.724;2023-12-20T15:32:37;0.10;99.90
23729;DHT22;12045;60.214;24.724;2023-12-20T15:35:06;0.20;99.90
23729;DHT22;12045;60.214;24.724;2023-12-20T15:37:35;0.00;99.90
23729;DHT22;12045;60.214;24.724;2023-12-20T15:40:04;-0.10;99.90
23729;DHT22;12045;60.214;24.724;2023-12-20T15:42:33;-0.20;99.90
23729;DHT22;12045;60.214;24.724;2023-12-20T15:45:06;-0.30;99.90
23729;DHT22;12045;60.214;24.724;2023-12-20T15:47:36;-0.30;99.90
23729;DHT22;12045;60.214;24.724;2023-12-20T15:50:05;-0.60;99.90
23729;DHT22;12045;60.214;24.724;2023-12-20T15:52:34;-0.70;99.90